createdAt,value
2017-11-20T00:02:03.048Z,77.00
2017-11-20T00:04:29.263Z,77.40
2017-11-20T00:06:56.002Z,77.50
2017-11-20T00:09:22.482Z,77.70
2017-11-20T00:11:49.988Z,77.10
2017-11-20T00:14:16.447Z,77.10
2017-11-20T00:16:43.594Z,77.20
2017-11-20T00:19:10.307Z,77.10
2017-11-20T00:21:37.831Z,77.50
2017-11-20T00:24:04.596Z,77.40
2017-11-20T00:26:31.810Z,77.40
2017-11-20T00:28:58.330Z,77.30
2017-11-20T00:31:25.083Z,77.60
2017-11-20T00:33:51.325Z,78.00
2017-11-20T00:36:18.473Z,77.50
2017-11-20T00:38:46.424Z,77.90
2017-11-20T00:41:13.428Z,77.90
2017-11-20T00:43:40.759Z,78.30
2017-11-20T00:46:08.157Z,78.50
2017-11-20T00:48:35.502Z,78.50
2017-11-20T00:51:01.764Z,78.50
2017-11-20T00:53:29.647Z,78.70
2017-11-20T00:55:56.192Z,78.40
2017-11-20T00:58:24.172Z,78.60
2017-11-20T01:00:51.169Z,78.90
2017-11-20T01:03:17.676Z,78.90
2017-11-20T01:05:43.869Z,79.00
2017-11-20T01:08:11.145Z,78.30
2017-11-20T01:10:37.607Z,78.30
2017-11-20T01:13:04.571Z,78.20
2017-11-20T01:15:32.579Z,78.50
2017-11-20T01:17:59.540Z,78.00
2017-11-20T01:20:26.125Z,78.00
2017-11-20T01:22:53.111Z,78.30
2017-11-20T01:25:19.564Z,78.20
2017-11-20T01:27:46.415Z,78.90
2017-11-20T01:30:13.236Z,79.00
2017-11-20T01:32:39.443Z,78.50
2017-11-20T01:35:07.439Z,79.60
2017-11-20T01:37:33.728Z,78.90
2017-11-20T01:40:00.830Z,79.00
2017-11-20T01:42:28.820Z,77.80
2017-11-20T01:44:56.308Z,78.20
2017-11-20T01:47:24.729Z,78.10
2017-11-20T01:49:50.959Z,78.10
2017-11-20T01:52:17.178Z,78.40
2017-11-20T01:54:43.652Z,78.60
2017-11-20T01:59:43.222Z,77.90
2017-11-20T02:02:10.831Z,77.50
2017-11-20T02:04:37.111Z,77.50
2017-11-20T02:07:04.251Z,77.90
2017-11-20T02:09:32.324Z,77.50
2017-11-20T02:11:58.693Z,77.50
2017-11-20T02:14:24.929Z,77.10
2017-11-20T02:16:51.181Z,77.20
2017-11-20T02:19:18.044Z,77.50
2017-11-20T02:21:46.546Z,77.60
2017-11-20T02:24:14.257Z,77.60
2017-11-20T02:26:41.870Z,77.60
2017-11-20T02:29:08.151Z,77.70
2017-11-20T02:31:34.426Z,77.90
2017-11-20T02:34:00.690Z,77.70
2017-11-20T02:36:27.345Z,77.90
2017-11-20T02:38:54.956Z,76.70
2017-11-20T02:41:21.226Z,76.80
2017-11-20T02:43:47.601Z,77.40
2017-11-20T02:46:14.396Z,77.40
2017-11-20T02:48:41.980Z,77.20
2017-11-20T02:51:08.497Z,77.20
2017-11-20T02:53:35.038Z,77.30
2017-11-20T02:56:03.369Z,77.60
2017-11-20T02:58:30.566Z,77.00
2017-11-20T03:00:57.077Z,77.00
2017-11-20T03:03:23.345Z,76.80
2017-11-20T03:05:50.740Z,77.20
2017-11-20T03:08:17.811Z,77.80
2017-11-20T03:10:44.982Z,77.80
2017-11-20T03:13:12.246Z,77.60
2017-11-20T03:15:40.031Z,77.50
2017-11-20T03:18:06.274Z,77.30
2017-11-20T03:20:33.121Z,76.70
2017-11-20T03:23:00.002Z,76.10
2017-11-20T03:25:27.025Z,76.20
2017-11-20T03:27:53.316Z,76.20
2017-11-20T03:30:20.412Z,76.30
2017-11-20T03:32:50.879Z,76.80
2017-11-20T03:35:17.152Z,77.00
2017-11-20T03:37:44.428Z,76.00
2017-11-20T03:40:11.178Z,75.70
2017-11-20T03:42:38.120Z,76.30
2017-11-20T03:45:05.740Z,76.60
2017-11-20T03:47:32.434Z,76.50
2017-11-20T03:49:59.777Z,75.70
2017-11-20T03:52:26.817Z,75.40
2017-11-20T03:54:53.613Z,75.30
2017-11-20T03:57:19.835Z,75.60
2017-11-20T03:59:46.644Z,75.90
2017-11-20T04:02:12.910Z,75.90
2017-11-20T04:04:39.766Z,75.90
2017-11-20T04:07:07.667Z,75.80
2017-11-20T04:09:35.966Z,76.20
2017-11-20T04:12:03.323Z,75.90
2017-11-20T04:14:30.581Z,75.90
2017-11-20T04:16:57.799Z,76.20
2017-11-20T04:19:25.144Z,76.20
2017-11-20T04:21:52.764Z,76.00
2017-11-20T04:24:19.063Z,75.90
2017-11-20T04:26:46.855Z,76.40
2017-11-20T04:29:14.215Z,76.60
2017-11-20T04:31:41.638Z,76.50
2017-11-20T04:34:08.653Z,76.40
2017-11-20T04:36:36.070Z,76.70
2017-11-20T04:39:02.472Z,76.40
2017-11-20T04:41:30.137Z,75.40
2017-11-20T04:43:57.739Z,76.20
2017-11-20T04:46:24.492Z,76.10
2017-11-20T04:48:50.985Z,76.30
2017-11-20T04:51:18.571Z,76.40
2017-11-20T04:53:45.813Z,76.40
2017-11-20T04:56:12.829Z,75.80
2017-11-20T04:58:40.137Z,75.70
2017-11-20T05:01:08.396Z,75.40
2017-11-20T05:03:34.631Z,75.40
2017-11-20T05:06:01.547Z,75.80
2017-11-20T05:08:28.167Z,75.70
2017-11-20T05:10:55.293Z,75.60
2017-11-20T05:13:22.847Z,75.30
2017-11-20T05:15:50.641Z,75.30
2017-11-20T05:18:17.601Z,75.10
2017-11-20T05:20:43.829Z,75.10
2017-11-20T05:23:10.070Z,75.30
2017-11-20T05:25:36.274Z,75.40
2017-11-20T05:28:03.776Z,75.60
2017-11-20T05:30:30.017Z,75.50
2017-11-20T05:32:57.062Z,75.40
2017-11-20T05:35:23.307Z,75.80
2017-11-20T05:37:50.044Z,76.20
2017-11-20T05:40:17.092Z,76.40
2017-11-20T05:42:44.502Z,76.80
2017-11-20T05:45:11.221Z,76.80
2017-11-20T05:47:38.759Z,77.40
2017-11-20T05:50:06.004Z,77.60
2017-11-20T05:52:33.096Z,78.00
2017-11-20T05:54:59.721Z,78.00
2017-11-20T05:57:26.763Z,77.90
2017-11-20T05:59:53.812Z,77.90
2017-11-20T06:02:20.839Z,77.90
2017-11-20T06:04:47.791Z,78.20
2017-11-20T06:07:15.509Z,78.30
2017-11-20T06:09:42.521Z,78.10
2017-11-20T06:12:09.239Z,78.10
2017-11-20T06:14:36.217Z,78.40
2017-11-20T06:17:02.431Z,78.40
2017-11-20T06:19:29.010Z,78.30
2017-11-20T06:21:56.413Z,78.40
2017-11-20T06:24:22.793Z,78.40
2017-11-20T06:26:49.693Z,78.40
2017-11-20T06:29:16.019Z,78.40
2017-11-20T06:31:43.006Z,78.00
2017-11-20T06:34:09.793Z,78.00
2017-11-20T06:36:36.600Z,78.00
2017-11-20T06:39:04.118Z,77.80
2017-11-20T06:41:30.415Z,77.90
2017-11-20T06:43:57.371Z,78.00
2017-11-20T06:46:24.991Z,78.90
2017-11-20T06:48:51.589Z,78.20
2017-11-20T06:51:18.659Z,78.40
2017-11-20T06:53:45.350Z,78.40
2017-11-20T06:56:12.852Z,78.80
2017-11-20T06:58:39.073Z,78.80
2017-11-20T07:01:05.869Z,79.00
2017-11-20T07:03:32.909Z,78.60
2017-11-20T07:06:00.184Z,78.60
2017-11-20T07:08:26.944Z,79.00
2017-11-20T07:10:53.179Z,78.80
2017-11-20T07:13:19.497Z,78.40
2017-11-20T07:15:46.843Z,78.20
2017-11-20T07:18:13.097Z,77.90
2017-11-20T07:20:39.326Z,78.30
2017-11-20T07:23:05.627Z,78.50
2017-11-20T07:25:53.806Z,78.60
2017-11-20T07:28:32.954Z,78.70
2017-11-20T07:34:17.965Z,78.70
2017-11-20T07:37:08.913Z,78.20
2017-11-20T07:39:35.311Z,78.20
2017-11-20T07:42:02.357Z,78.10
2017-11-20T07:44:29.872Z,78.60
2017-11-20T07:46:56.073Z,78.60
2017-11-20T07:49:22.418Z,78.40
2017-11-20T07:51:49.018Z,78.30
2017-11-20T07:54:15.595Z,77.90
2017-11-20T07:56:42.631Z,78.00
2017-11-20T07:59:08.840Z,77.90
2017-11-20T08:01:35.068Z,77.50
2017-11-20T08:04:01.710Z,77.90
2017-11-20T08:06:28.011Z,77.30
2017-11-20T08:08:54.979Z,77.50
2017-11-20T08:11:21.688Z,77.40
2017-11-20T08:13:49.831Z,77.40
2017-11-20T08:16:17.152Z,76.90
2017-11-20T08:18:43.813Z,76.90
2017-11-20T08:21:11.164Z,77.00
2017-11-20T08:23:38.554Z,77.20
2017-11-20T08:26:06.198Z,76.70
2017-11-20T08:28:32.621Z,76.70
2017-11-20T08:31:00.053Z,75.50
2017-11-20T08:33:27.357Z,75.60
2017-11-20T08:35:54.260Z,75.60
2017-11-20T08:38:20.787Z,76.00
2017-11-20T08:40:48.376Z,76.20
2017-11-20T08:43:15.392Z,76.00
2017-11-20T08:45:41.697Z,76.00
2017-11-20T08:48:08.958Z,76.30
2017-11-20T08:50:37.035Z,76.60
2017-11-20T08:53:03.792Z,76.50
2017-11-20T08:55:30.567Z,76.10
2017-11-20T08:57:57.717Z,75.40
2017-11-20T09:00:23.956Z,75.30
2017-11-20T09:02:50.188Z,74.40
2017-11-20T09:05:17.013Z,75.00
2017-11-20T09:07:43.315Z,74.70
2017-11-20T09:10:09.744Z,74.10
2017-11-20T09:12:35.955Z,75.00
2017-11-20T09:15:02.239Z,75.70
2017-11-20T09:17:28.776Z,75.40
2017-11-20T09:19:55.093Z,75.40
2017-11-20T09:22:22.866Z,76.20
2017-11-20T09:24:49.157Z,75.40
2017-11-20T09:27:15.822Z,75.10
2017-11-20T09:29:43.287Z,75.10
2017-11-20T09:32:10.925Z,74.80
2017-11-20T09:34:37.740Z,74.80
2017-11-20T09:37:04.325Z,73.80
2017-11-20T09:39:32.381Z,74.50
2017-11-20T09:41:59.418Z,73.70
2017-11-20T09:44:25.844Z,73.70
2017-11-20T09:46:52.112Z,73.10
2017-11-20T09:49:19.415Z,73.30
2017-11-20T09:51:46.279Z,73.30
2017-11-20T09:54:12.618Z,73.40
2017-11-20T09:56:39.228Z,73.20
2017-11-20T09:59:06.552Z,73.10
2017-11-20T10:01:34.479Z,73.50
2017-11-20T10:04:00.876Z,73.50
2017-11-20T10:06:29.086Z,72.80
2017-11-20T10:08:55.350Z,72.80
2017-11-20T10:11:23.080Z,73.50
2017-11-20T10:13:49.303Z,73.40
2017-11-20T10:16:15.619Z,73.90
2017-11-20T10:18:43.647Z,73.90
2017-11-20T10:21:10.649Z,73.00
2017-11-20T10:23:37.369Z,73.00
2017-11-20T10:26:05.206Z,73.20
2017-11-20T10:28:32.411Z,72.10
2017-11-20T10:30:58.875Z,72.60
2017-11-20T10:33:26.400Z,72.80
2017-11-20T10:35:52.937Z,72.80
2017-11-20T10:38:19.163Z,71.80
2017-11-20T10:40:45.392Z,72.50
2017-11-20T10:43:12.541Z,73.30
2017-11-20T10:45:38.867Z,71.80
2017-11-20T10:48:05.351Z,72.30
2017-11-20T10:50:32.701Z,72.70
2017-11-20T10:53:00.322Z,73.00
2017-11-20T10:55:27.343Z,72.00
2017-11-20T10:57:54.764Z,71.90
2017-11-20T11:00:21.085Z,71.10
2017-11-20T11:02:48.234Z,71.30
2017-11-20T11:05:15.345Z,71.30
2017-11-20T11:07:42.777Z,69.80
2017-11-20T11:10:10.376Z,70.50
2017-11-20T11:12:36.728Z,70.50
2017-11-20T11:15:04.388Z,71.40
2017-11-20T11:17:31.516Z,70.00
2017-11-20T11:19:58.524Z,69.60
2017-11-20T11:22:24.800Z,69.60
2017-11-20T11:24:51.775Z,69.70
2017-11-20T11:27:18.046Z,69.60
2017-11-20T11:29:44.364Z,70.00
2017-11-20T11:32:10.581Z,69.30
2017-11-20T11:34:37.476Z,69.20
2017-11-20T11:37:04.436Z,69.20
2017-11-20T11:39:31.537Z,68.90
2017-11-20T11:41:58.004Z,68.90
2017-11-20T11:44:25.003Z,69.00
2017-11-20T11:46:51.244Z,69.00
2017-11-20T11:49:18.059Z,69.20
2017-11-20T11:51:44.918Z,69.60
2017-11-20T11:54:11.242Z,68.90
2017-11-20T11:56:38.078Z,68.80
2017-11-20T11:59:04.316Z,68.20
2017-11-20T12:01:31.087Z,68.10
2017-11-20T12:03:57.928Z,67.70
2017-11-20T12:06:24.683Z,68.50
2017-11-20T12:08:52.523Z,68.90
2017-11-20T12:11:18.857Z,68.90
2017-11-20T12:13:45.106Z,69.10
2017-11-20T12:16:11.835Z,68.30
2017-11-20T12:18:38.059Z,67.90
2017-11-20T12:21:04.385Z,67.70
2017-11-20T12:23:31.509Z,67.30
2017-11-20T12:25:58.157Z,68.30
2017-11-20T12:28:25.473Z,68.40
2017-11-20T12:30:51.793Z,67.30
2017-11-20T12:33:18.808Z,67.90
2017-11-20T12:35:46.239Z,67.40
2017-11-20T12:38:13.409Z,67.40
2017-11-20T12:40:41.040Z,69.00
2017-11-20T12:43:07.489Z,68.90
2017-11-20T12:45:34.500Z,67.50
2017-11-20T12:48:01.184Z,67.50
2017-11-20T12:50:28.186Z,66.80
2017-11-20T12:52:54.478Z,67.40
2017-11-20T12:55:21.685Z,66.70
2017-11-20T12:57:48.444Z,66.50
2017-11-20T13:00:15.646Z,66.80
2017-11-20T13:02:42.216Z,66.80
2017-11-20T13:05:09.308Z,66.70
2017-11-20T13:07:36.388Z,67.10
2017-11-20T13:10:02.692Z,67.10
2017-11-20T13:12:30.281Z,67.80
2017-11-20T13:14:57.545Z,67.70
2017-11-20T13:17:23.883Z,66.70
2017-11-20T13:19:50.153Z,66.50
2017-11-20T13:22:16.392Z,65.50
2017-11-20T13:24:43.563Z,66.20
2017-11-20T13:27:10.606Z,65.70
2017-11-20T13:29:37.261Z,65.60
2017-11-20T13:32:04.328Z,65.80
2017-11-20T13:34:30.959Z,65.80
2017-11-20T13:36:59.023Z,65.00
2017-11-20T13:39:25.398Z,65.00
2017-11-20T13:41:51.750Z,63.50
2017-11-20T13:44:18.020Z,64.20
2017-11-20T13:46:44.992Z,63.10
2017-11-20T13:49:11.987Z,63.00
2017-11-20T13:51:38.966Z,63.40
2017-11-20T13:54:06.203Z,65.00
2017-11-20T13:56:33.320Z,65.50
2017-11-20T13:58:59.571Z,65.50
2017-11-20T14:01:26.981Z,65.20
2017-11-20T14:03:53.967Z,66.00
2017-11-20T14:06:36.632Z,66.00
2017-11-20T14:09:03.934Z,66.10
2017-11-20T14:11:30.691Z,67.10
2017-11-20T14:13:57.737Z,69.70
2017-11-20T14:16:24.511Z,69.70
2017-11-20T14:18:51.865Z,69.80
2017-11-20T14:21:19.040Z,70.40
2017-11-20T14:23:46.119Z,71.00
2017-11-20T14:26:12.433Z,71.00
2017-11-20T14:28:39.154Z,71.00
2017-11-20T14:31:06.110Z,71.90
2017-11-20T14:33:32.938Z,71.20
2017-11-20T14:35:59.911Z,71.20
2017-11-20T14:38:26.390Z,71.20
2017-11-20T14:40:53.413Z,70.80
2017-11-20T14:43:20.031Z,70.80
2017-11-20T14:45:47.722Z,71.50
2017-11-20T14:48:16.402Z,71.50
2017-11-20T14:50:42.713Z,71.40
2017-11-20T14:53:09.853Z,71.90
2017-11-20T14:55:36.375Z,71.40
2017-11-20T14:58:03.166Z,71.50
2017-11-20T15:00:30.825Z,71.60
2017-11-20T15:02:57.372Z,71.50
2017-11-20T15:05:24.728Z,72.30
2017-11-20T15:07:52.547Z,72.60
2017-11-20T15:10:19.810Z,73.20
2017-11-20T15:12:47.168Z,73.00
2017-11-20T15:15:14.224Z,73.30
2017-11-20T15:17:41.093Z,73.30
2017-11-20T15:20:07.364Z,74.10
2017-11-20T15:22:33.748Z,73.20
2017-11-20T15:25:00.035Z,73.30
2017-11-20T15:27:27.304Z,73.60
2017-11-20T15:29:53.558Z,73.40
2017-11-20T15:32:19.830Z,73.60
2017-11-20T15:34:46.378Z,73.30
2017-11-20T15:37:13.959Z,73.20
2017-11-20T15:39:40.904Z,73.10
2017-11-20T15:42:07.341Z,74.00
2017-11-20T15:44:34.354Z,73.90
2017-11-20T15:47:00.805Z,73.90
2017-11-20T15:49:28.354Z,73.90
2017-11-20T15:51:54.621Z,73.90
2017-11-20T15:54:21.066Z,74.30
2017-11-20T15:56:48.789Z,74.00
2017-11-20T15:59:15.007Z,74.00
2017-11-20T16:01:41.792Z,74.30
2017-11-20T16:04:08.271Z,74.00
2017-11-20T16:06:35.436Z,74.80
2017-11-20T16:09:02.273Z,74.70
2017-11-20T16:11:36.057Z,74.90
2017-11-20T16:14:02.259Z,74.90
2017-11-20T16:16:29.860Z,74.70
2017-11-20T16:18:56.666Z,74.70
2017-11-20T16:21:24.609Z,75.70
2017-11-20T16:23:51.567Z,75.00
2017-11-20T16:26:17.837Z,74.70
2017-11-20T16:28:44.099Z,74.40
2017-11-20T16:31:10.666Z,74.40
2017-11-20T16:33:37.672Z,74.80
2017-11-20T16:36:04.539Z,74.70
2017-11-20T16:38:31.022Z,74.80
2017-11-20T16:40:57.537Z,74.80
2017-11-20T16:43:25.233Z,75.00
2017-11-20T16:45:51.449Z,75.00
2017-11-20T16:48:18.213Z,75.00
2017-11-20T16:50:44.953Z,75.20
2017-11-20T16:53:12.027Z,75.70
2017-11-20T16:55:38.282Z,75.70
2017-11-20T16:58:17.535Z,75.40
2017-11-20T17:00:47.918Z,75.40
2017-11-20T17:03:26.548Z,75.30
2017-11-20T17:05:53.785Z,75.30
2017-11-20T17:08:21.005Z,76.40
2017-11-20T17:10:47.235Z,75.30
2017-11-20T17:13:13.472Z,75.30
2017-11-20T17:15:40.207Z,75.40
2017-11-20T17:18:07.422Z,75.70
2017-11-20T17:20:34.621Z,75.80
2017-11-20T17:23:00.909Z,75.80
2017-11-20T17:25:27.778Z,76.30
2017-11-20T17:27:54.033Z,76.40
2017-11-20T17:30:20.963Z,76.00
2017-11-20T17:32:47.250Z,75.80
2017-11-20T17:35:13.536Z,75.60
2017-11-20T17:37:39.753Z,75.90
2017-11-20T17:40:06.545Z,75.70
2017-11-20T17:42:32.983Z,75.80
2017-11-20T17:44:59.251Z,76.00
2017-11-20T17:47:25.725Z,76.00
2017-11-20T17:49:52.718Z,77.20
2017-11-20T17:52:19.144Z,77.20
2017-11-20T17:54:45.685Z,76.90
2017-11-20T17:57:12.418Z,76.50
2017-11-20T17:59:38.758Z,76.40
2017-11-20T18:02:05.073Z,76.40
2017-11-20T18:04:31.423Z,76.80
2017-11-20T18:06:57.660Z,76.50
2017-11-20T18:09:23.959Z,76.40
2017-11-20T18:11:50.615Z,76.70
2017-11-20T18:14:18.163Z,76.50
2017-11-20T18:16:44.537Z,76.50
2017-11-20T18:19:11.056Z,76.70
2017-11-20T18:21:38.762Z,76.30
2017-11-20T18:24:05.848Z,77.00
2017-11-20T18:26:32.506Z,76.30
2017-11-20T18:28:59.620Z,76.80
2017-11-20T18:31:26.721Z,76.80
2017-11-20T18:33:53.704Z,76.50
2017-11-20T18:36:20.301Z,76.40
2017-11-20T18:38:47.689Z,76.70
2017-11-20T18:41:14.095Z,76.70
2017-11-20T18:43:40.351Z,76.30
2017-11-20T18:46:07.978Z,76.50
2017-11-20T18:48:34.206Z,76.30
2017-11-20T18:51:01.023Z,76.80
2017-11-20T18:53:27.325Z,77.50
2017-11-20T18:55:53.609Z,76.30
2017-11-20T18:58:20.689Z,76.20
2017-11-20T19:00:59.861Z,76.10
2017-11-20T19:03:28.095Z,75.90
2017-11-20T19:06:07.484Z,76.20
2017-11-20T19:08:41.113Z,75.90
2017-11-20T19:11:07.478Z,75.80
2017-11-20T19:13:33.757Z,76.00
2017-11-20T19:16:01.303Z,76.00
2017-11-20T19:18:28.373Z,76.00
2017-11-20T19:20:55.545Z,75.90
2017-11-20T19:23:21.753Z,76.00
2017-11-20T19:25:49.342Z,75.60
2017-11-20T19:28:15.855Z,75.40
2017-11-20T19:30:43.067Z,75.30
2017-11-20T19:33:09.371Z,75.30
2017-11-20T19:35:35.657Z,75.80
2017-11-20T19:38:02.635Z,76.50
2017-11-20T19:40:29.071Z,76.50
2017-11-20T19:42:55.312Z,76.40
2017-11-20T19:45:21.528Z,76.00
2017-11-20T19:47:48.303Z,76.10
2017-11-20T19:50:14.707Z,76.30
2017-11-20T19:52:41.724Z,76.90
2017-11-20T19:55:09.720Z,77.20
2017-11-20T19:57:35.963Z,77.20
2017-11-20T20:00:02.225Z,77.60
2017-11-20T20:02:28.522Z,77.00
2017-11-20T20:04:54.737Z,77.50
2017-11-20T20:07:21.671Z,76.70
2017-11-20T20:09:49.295Z,77.10
2017-11-20T20:12:16.569Z,78.60
2017-11-20T20:15:05.140Z,78.60
2017-11-20T20:17:31.856Z,78.60
2017-11-20T20:19:59.311Z,77.80
2017-11-20T20:22:26.323Z,77.50
2017-11-20T20:24:52.526Z,77.50
2017-11-20T20:27:18.849Z,77.50
2017-11-20T20:29:45.434Z,77.10
2017-11-20T20:32:12.419Z,76.70
2017-11-20T20:34:38.919Z,76.70
2017-11-20T20:37:06.970Z,76.70
2017-11-20T20:39:33.955Z,76.70
2017-11-20T20:42:00.205Z,76.70
2017-11-20T20:44:26.436Z,77.10
2017-11-20T20:46:53.260Z,76.80
2017-11-20T20:49:20.007Z,76.80
2017-11-20T20:51:46.249Z,77.50
2017-11-20T20:54:12.961Z,77.30
2017-11-20T20:56:39.206Z,77.40
2017-11-20T20:59:05.969Z,78.00
2017-11-20T21:01:32.221Z,78.30
2017-11-20T21:03:59.504Z,78.10
2017-11-20T21:06:26.772Z,78.00
2017-11-20T21:08:53.663Z,78.40
2017-11-20T21:11:25.925Z,78.00
2017-11-20T21:13:52.622Z,78.30
2017-11-20T21:16:20.225Z,78.30
2017-11-20T21:18:48.303Z,77.50
2017-11-20T21:21:14.913Z,77.50
2017-11-20T21:23:42.019Z,77.30
2017-11-20T21:26:09.286Z,77.40
2017-11-20T21:28:36.332Z,77.00
2017-11-20T21:31:02.561Z,76.90
2017-11-20T21:33:29.089Z,77.20
2017-11-20T21:35:56.491Z,78.50
2017-11-20T21:38:24.566Z,78.10
2017-11-20T21:40:50.891Z,78.00
2017-11-20T21:43:17.613Z,78.10
2017-11-20T21:45:45.248Z,77.80
2017-11-20T21:48:12.057Z,77.80
2017-11-20T21:50:39.021Z,77.50
2017-11-20T21:53:05.315Z,77.70
2017-11-20T21:55:31.588Z,77.60
2017-11-20T21:57:57.816Z,77.30
2017-11-20T22:00:24.072Z,77.30
2017-11-20T22:02:50.303Z,77.30
2017-11-20T22:05:16.658Z,77.40
2017-11-20T22:07:43.058Z,77.40
2017-11-20T22:10:09.939Z,77.20
2017-11-20T22:12:39.455Z,77.00
2017-11-20T22:15:05.866Z,76.60
2017-11-20T22:17:32.871Z,76.80
2017-11-20T22:19:59.146Z,76.70
2017-11-20T22:22:25.947Z,76.80
2017-11-20T22:24:53.187Z,76.60
2017-11-20T22:27:20.005Z,76.40
2017-11-20T22:29:47.877Z,76.00
2017-11-20T22:34:48.455Z,76.30
2017-11-20T22:37:14.670Z,76.20
2017-11-20T22:39:41.590Z,76.20
2017-11-20T22:42:09.132Z,76.50
2017-11-20T22:44:35.355Z,76.50
2017-11-20T22:47:01.581Z,76.50
2017-11-20T22:49:27.858Z,76.40
2017-11-20T22:51:54.569Z,76.40
2017-11-20T22:54:21.571Z,76.80
2017-11-20T22:56:48.308Z,76.70
2017-11-20T22:59:14.559Z,76.80
2017-11-20T23:01:41.392Z,76.80
2017-11-20T23:04:07.839Z,76.80
2017-11-20T23:06:34.064Z,76.60
2017-11-20T23:09:01.174Z,76.60
2017-11-20T23:11:28.437Z,76.60
2017-11-20T23:13:55.957Z,76.50
2017-11-20T23:16:30.842Z,76.60
2017-11-20T23:18:57.612Z,76.60
2017-11-20T23:21:25.600Z,77.00
2017-11-20T23:23:53.176Z,77.00
2017-11-20T23:26:19.393Z,77.00
2017-11-20T23:28:45.636Z,76.80
2017-11-20T23:31:11.847Z,77.20
2017-11-20T23:33:38.295Z,77.30
2017-11-20T23:36:05.331Z,77.10
2017-11-20T23:38:32.095Z,76.80
2017-11-20T23:40:59.564Z,76.50
2017-11-20T23:43:26.584Z,77.40
2017-11-20T23:45:53.041Z,76.50
2017-11-20T23:48:19.951Z,76.70
2017-11-20T23:50:47.173Z,77.00
2017-11-20T23:53:26.816Z,76.80
2017-11-20T23:55:54.132Z,77.00
2017-11-20T23:58:20.322Z,76.90
